Time;durP1;ratioP1;P1;durP2;ratioP2;P2;SDS_P1;SDS_P2;PMS_P1;PMS_P2;Temp;Humidity;BMP_temperature;BMP_pressure;BME280_temperature;BME280_humidity;BME280_pressure;Samples;Min_cycle;Max_cycle;Signal;HPM_P1;HPM_P2
2021/11/29 00:00:32;;;;;;;0.80;0.80;;;;;;;0.10;91.95;95265.56;29375;248;63005;-60
2021/11/29 00:01:08;;;;;;;0.80;0.80;;;;;;;0.06;92.18;95254.63;29375;202;63009;-60
2021/11/29 00:01:44;;;;;;;0.90;0.90;;;;;;;0.05;92.10;95263.69;29375;229;63004;-62
2021/11/29 00:02:19;;;;;;;0.80;0.80;;;;;;;0.06;92.31;95259.16;29375;263;63009;-61
2021/11/29 00:03:00;;;;;;;0.88;0.88;;;;;;;0.09;92.39;95261.31;29375;211;63004;-61
2021/11/29 00:03:33;;;;;;;0.90;0.90;;;;;;;0.10;92.41;95260.25;29395;252;64009;-62
2021/11/29 00:04:05;;;;;;;0.90;0.90;;;;;;;0.09;92.36;95259.44;29396;202;63004;-63
2021/11/29 00:04:36;;;;;;;0.90;0.90;;;;;;;0.07;92.57;95255.44;29375;197;63008;-62
2021/11/29 00:05:09;;;;;;;0.90;0.90;;;;;;;0.05;92.45;95268.22;29375;218;63005;-62
2021/11/29 00:05:40;;;;;;;0.80;0.80;;;;;;;0.04;92.67;95256.78;29375;272;63009;-61
2021/11/29 00:06:11;;;;;;;0.80;0.80;;;;;;;0.05;92.59;95262.91;29375;227;63005;-62
2021/11/29 00:06:43;;;;;;;0.90;0.90;;;;;;;0.02;92.54;95256.22;29376;242;63022;-61
2021/11/29 00:07:15;;;;;;;0.85;0.85;;;;;;;-0.01;92.56;95256.78;29375;204;63005;-60
2021/11/29 00:07:46;;;;;;;0.82;0.82;;;;;;;-0.01;92.94;95254.13;29375;225;63009;-63
2021/11/29 00:08:18;;;;;;;0.90;0.90;;;;;;;-0.03;92.86;95251.72;29376;221;63005;-61
2021/11/29 00:08:49;;;;;;;0.80;0.80;;;;;;;-0.02;93.02;95257.84;29373;248;64009;-62
2021/11/29 00:09:21;;;;;;;0.80;0.80;;;;;;;0.02;93.16;95252.75;29375;232;63004;-64
2021/11/29 00:09:52;;;;;;;0.80;0.80;;;;;;;0.08;93.17;95263.19;29373;216;64009;-63
2021/11/29 00:10:24;;;;;;;0.80;0.80;;;;;;;0.10;92.95;95254.91;29375;198;63004;-63
2021/11/29 00:10:55;;;;;;;0.80;0.80;;;;;;;0.12;92.96;95258.09;29375;218;63009;-63
2021/11/29 00:11:26;;;;;;;0.80;0.80;;;;;;;0.13;92.87;95257.03;29375;212;63004;-62
2021/11/29 00:11:57;;;;;;;0.80;0.80;;;;;;;0.12;92.84;95263.44;29375;291;63008;-62
2021/11/29 00:12:29;;;;;;;0.80;0.80;;;;;;;0.10;92.38;95261.03;29375;232;63005;-63
2021/11/29 00:13:01;;;;;;;0.80;0.80;;;;;;;0.14;92.42;95266.66;29375;278;63009;-59
2021/11/29 00:13:32;;;;;;;0.80;0.80;;;;;;;0.14;92.17;95267.44;29375;261;63005;-63
2021/11/29 00:14:04;;;;;;;0.90;0.90;;;;;;;0.11;92.23;95259.97;29375;244;63012;-62
2021/11/29 00:14:35;;;;;;;0.80;0.80;;;;;;;0.09;92.01;95269.31;29375;238;63008;-59
2021/11/29 00:15:09;;;;;;;0.80;0.80;;;;;;;0.22;91.70;95263.44;29373;227;64009;-64
2021/11/29 00:15:41;;;;;;;0.80;0.80;;;;;;;0.31;91.22;95267.19;29375;218;63005;-63
2021/11/29 00:16:12;;;;;;;0.80;0.80;;;;;;;0.31;90.87;95269.84;29375;223;63009;-61
2021/11/29 00:16:43;;;;;;;0.80;0.80;;;;;;;0.27;90.66;95276.78;29373;198;64004;-62
2021/11/29 00:17:14;;;;;;;0.80;0.80;;;;;;;0.23;90.89;95271.19;29375;279;63009;-63
2021/11/29 00:17:45;;;;;;;0.80;0.80;;;;;;;0.20;90.65;95270.91;29375;224;63004;-60
2021/11/29 00:18:17;;;;;;;0.80;0.80;;;;;;;0.17;90.84;95272.25;29375;238;63009;-62
2021/11/29 00:18:48;;;;;;;0.90;0.90;;;;;;;0.17;90.95;95274.91;29375;205;63004;-60
2021/11/29 00:19:20;;;;;;;0.80;0.80;;;;;;;0.15;91.10;95274.38;29375;207;63008;-62
2021/11/29 00:19:52;;;;;;;0.80;0.80;;;;;;;0.13;90.94;95273.84;29375;205;63004;-63
2021/11/29 00:20:24;;;;;;;0.80;0.80;;;;;;;0.12;91.15;95276.78;29373;214;64009;-62
2021/11/29 00:20:55;;;;;;;0.80;0.80;;;;;;;0.13;91.24;95276.50;29375;216;63005;-61
2021/11/29 00:21:27;;;;;;;0.80;0.80;;;;;;;0.15;91.28;95278.91;29375;225;63023;-62
2021/11/29 00:21:58;;;;;;;0.80;0.80;;;;;;;0.19;91.24;95272.78;29375;225;63005;-62
2021/11/29 00:22:29;;;;;;;0.80;0.80;;;;;;;0.25;91.25;95278.94;29375;251;63012;-62
2021/11/29 00:23:01;;;;;;;0.80;0.80;;;;;;;0.29;90.86;95278.13;29375;205;63009;-62
2021/11/29 00:23:33;;;;;;;0.80;0.80;;;;;;;0.31;90.72;95277.88;29375;231;63009;-65
2021/11/29 00:24:05;;;;;;;0.80;0.80;;;;;;;0.28;90.61;95278.41;29373;264;64005;-62
2021/11/29 00:24:36;;;;;;;0.80;0.80;;;;;;;0.32;90.55;95282.13;29375;238;63009;-62
2021/11/29 00:25:09;;;;;;;0.80;0.80;;;;;;;0.38;90.24;95282.91;29375;259;63004;-59
2021/11/29 00:25:41;;;;;;;0.80;0.80;;;;;;;0.41;90.02;95277.84;29375;246;63009;-61
2021/11/29 00:26:19;;;;;;;0.80;0.80;;;;;;;0.47;89.45;95284.78;29375;290;63004;-61
2021/11/29 00:26:51;;;;;;;0.80;0.80;;;;;;;0.48;89.36;95273.03;29375;229;63022;-64
2021/11/29 00:27:22;;;;;;;0.80;0.80;;;;;;;0.49;89.01;95284.50;29375;250;63004;-61
2021/11/29 00:27:54;;;;;;;4.62;4.43;;;;;;;0.42;89.10;95284.78;29375;253;63009;-63
2021/11/29 00:28:25;;;;;;;0.75;0.75;;;;;;;0.40;89.29;95288.78;29375;214;63005;-61
2021/11/29 00:28:57;;;;;;;0.80;0.80;;;;;;;0.40;89.59;95284.25;29375;227;63009;-61
2021/11/29 00:29:28;;;;;;;1.10;1.10;;;;;;;0.42;89.47;95284.78;29373;211;63995;-63
2021/11/29 00:30:00;;;;;;;0.80;0.80;;;;;;;0.44;89.49;95279.97;29375;229;63014;-65
2021/11/29 00:30:31;;;;;;;0.80;0.80;;;;;;;0.46;89.31;95285.84;29375;211;63005;-61
2021/11/29 00:31:02;;;;;;;0.80;0.80;;;;;;;0.42;89.30;95279.44;29375;211;63009;-61
2021/11/29 00:31:34;;;;;;;0.80;0.80;;;;;;;0.45;89.39;95280.78;29375;264;63005;-60
2021/11/29 00:32:06;;;;;;;0.80;0.80;;;;;;;0.43;89.42;95286.38;29375;222;63009;-62
2021/11/29 00:32:38;;;;;;;0.80;0.80;;;;;;;0.41;89.25;95285.84;29375;210;63004;-60
2021/11/29 00:33:11;;;;;;;0.80;0.80;;;;;;;0.43;89.22;95283.72;29375;287;63009;-62
2021/11/29 00:33:42;;;;;;;0.80;0.80;;;;;;;0.47;89.30;95287.44;29375;220;63004;-60
2021/11/29 00:34:14;;;;;;;0.80;0.80;;;;;;;0.42;89.37;95287.44;29376;208;63008;-63
2021/11/29 00:34:45;;;;;;;0.80;0.80;;;;;;;0.45;89.11;95284.25;29373;218;64017;-63
2021/11/29 00:35:16;;;;;;;0.80;0.80;;;;;;;0.42;89.24;95287.44;29375;225;63009;-64
2021/11/29 00:35:48;;;;;;;0.80;0.80;;;;;;;0.36;89.27;95291.19;29373;199;64005;-64
2021/11/29 00:36:19;;;;;;;0.80;0.80;;;;;;;0.30;89.58;95287.72;29375;202;63009;-63
2021/11/29 00:36:51;;;;;;;1.27;1.27;;;;;;;0.31;89.63;95288.53;29375;272;63005;-65
2021/11/29 00:37:24;;;;;;;0.80;0.80;;;;;;;0.32;89.85;95290.13;29375;222;63009;-63
2021/11/29 00:37:59;;;;;;;0.80;0.80;;;;;;;0.32;89.68;95295.47;29375;211;63005;-61
2021/11/29 00:38:30;;;;;;;0.80;0.80;;;;;;;0.31;89.86;95286.66;29375;209;63009;-63
2021/11/29 00:39:02;;;;;;;0.80;0.80;;;;;;;0.27;89.88;95292.81;29375;243;63005;-64
2021/11/29 00:39:33;;;;;;;0.80;0.80;;;;;;;0.24;89.93;95293.34;29375;209;63009;-63
2021/11/29 00:40:08;;;;;;;0.80;0.80;;;;;;;0.23;90.11;95299.72;29373;198;64004;-63
2021/11/29 00:40:43;;;;;;;0.80;0.80;;;;;;;0.22;90.31;95298.13;29375;215;63009;-62
2021/11/29 00:41:15;;;;;;;6.32;5.95;;;;;;;0.23;90.40;95294.41;29375;228;63004;-61
2021/11/29 00:41:47;;;;;;;0.90;0.90;;;;;;;0.24;90.50;95298.66;29375;254;63008;-64
2021/11/29 00:42:18;;;;;;;0.80;0.80;;;;;;;0.22;90.54;95306.13;29373;205;64004;-65
2021/11/29 00:42:50;;;;;;;0.80;0.80;;;;;;;0.20;90.38;95300.25;29375;265;63009;-62
2021/11/29 00:43:21;;;;;;;1.00;1.00;;;;;;;0.24;90.36;95304.81;29374;261;63005;-66
2021/11/29 00:43:52;;;;;;;0.80;0.80;;;;;;;0.25;90.15;95295.72;29375;210;63009;-63
2021/11/29 00:44:26;;;;;;;0.80;0.80;;;;;;;0.29;90.20;95306.66;29372;206;64005;-59
2021/11/29 00:44:57;;;;;;;1.00;1.00;;;;;;;0.35;90.23;95310.91;29373;241;63009;-64
2021/11/29 00:45:29;;;;;;;0.80;0.80;;;;;;;0.33;89.93;95313.06;29373;217;63005;-59
2021/11/29 00:46:00;;;;;;;0.80;0.80;;;;;;;0.36;89.68;95301.84;29374;255;63009;-62
2021/11/29 00:46:31;;;;;;;0.90;0.90;;;;;;;0.37;89.66;95307.97;29373;240;63005;-62
2021/11/29 00:47:06;;;;;;;0.80;0.80;;;;;;;0.33;89.76;95313.87;29373;247;63009;-64
2021/11/29 00:47:38;;;;;;;0.80;0.80;;;;;;;0.29;89.59;95306.66;29373;197;63010;-61
2021/11/29 00:48:09;;;;;;;1.10;1.10;;;;;;;0.24;89.96;95309.34;29373;210;63009;-63
2021/11/29 00:48:40;;;;;;;2.15;1.33;;;;;;;0.24;90.14;95309.34;29373;218;63004;-64
2021/11/29 00:49:11;;;;;;;0.80;0.80;;;;;;;0.24;90.24;95304.81;29373;205;63009;-64
2021/11/29 00:49:43;;;;;;;1.00;1.00;;;;;;;0.23;90.32;95302.41;29371;251;64004;-63
2021/11/29 00:50:16;;;;;;;0.80;0.80;;;;;;;0.22;90.45;95306.13;29371;232;64009;-65
2021/11/29 00:50:48;;;;;;;0.80;0.80;;;;;;;0.18;90.32;95307.72;29373;253;63005;-60
2021/11/29 00:51:19;;;;;;;0.80;0.80;;;;;;;0.14;90.40;95303.97;29373;198;63009;-63
2021/11/29 00:51:50;;;;;;;0.80;0.80;;;;;;;0.21;90.70;95316.00;29373;231;63005;-66
2021/11/29 00:52:22;;;;;;;2.35;2.25;;;;;;;0.23;90.57;95307.72;29372;197;63009;-61
2021/11/29 00:52:53;;;;;;;1.25;1.25;;;;;;;0.30;90.34;95309.06;29373;242;63005;-68
2021/11/29 00:53:24;;;;;;;0.80;0.80;;;;;;;0.28;90.25;95300.53;29373;212;63019;-65
2021/11/29 00:53:57;;;;;;;0.80;0.80;;;;;;;0.26;90.12;95307.19;29373;213;63014;-60
2021/11/29 00:54:28;;;;;;;0.90;0.90;;;;;;;0.30;90.05;95314.41;29373;253;63009;-66
2021/11/29 00:54:59;;;;;;;0.95;0.95;;;;;;;0.32;89.90;95303.47;29373;210;63004;-65
2021/11/29 00:55:31;;;;;;;0.80;0.80;;;;;;;0.33;89.77;95307.75;29373;225;63023;-62
2021/11/29 00:56:02;;;;;;;0.90;0.90;;;;;;;0.34;89.66;95312.00;29373;210;63004;-61
2021/11/29 00:56:33;;;;;;;1.50;1.50;;;;;;;0.37;89.82;95310.66;29373;206;63008;-63
2021/11/29 00:57:05;;;;;;;2.50;1.87;;;;;;;0.36;89.58;95306.37;29371;231;63997;-60
2021/11/29 00:57:36;;;;;;;0.80;0.80;;;;;;;0.35;89.53;95302.91;29373;199;63009;-64
2021/11/29 00:58:08;;;;;;;0.80;0.80;;;;;;;0.38;89.51;95310.38;29373;245;63005;-62
2021/11/29 00:58:39;;;;;;;0.80;0.80;;;;;;;0.35;89.39;95305.59;29373;234;63009;-66
2021/11/29 00:59:10;;;;;;;4.50;1.73;;;;;;;0.30;89.50;95313.59;29373;230;63005;-64
2021/11/29 00:59:46;;;;;;;0.90;0.90;;;;;;;0.32;89.56;95306.16;29371;245;64009;-64
2021/11/29 01:00:20;;;;;;;0.80;0.80;;;;;;;0.31;89.53;95312.53;29373;208;63005;-64
2021/11/29 01:00:53;;;;;;;0.80;0.80;;;;;;;0.26;89.62;95313.34;29373;238;63009;-62
2021/11/29 01:01:24;;;;;;;0.80;0.80;;;;;;;0.21;89.78;95308.00;29373;203;63004;-64
2021/11/29 01:01:55;;;;;;;0.80;0.80;;;;;;;0.22;89.99;95314.13;29373;263;63009;-62
2021/11/29 01:02:26;;;;;;;0.90;0.90;;;;;;;0.27;89.94;95311.47;29373;198;63004;-61
2021/11/29 01:02:59;;;;;;;0.80;0.80;;;;;;;0.25;89.88;95310.94;29373;213;63009;-65
2021/11/29 01:03:30;;;;;;;0.93;0.93;;;;;;;0.32;89.54;95311.47;29371;249;64004;-65
2021/11/29 01:04:03;;;;;;;0.80;0.80;;;;;;;0.28;89.61;95315.75;29373;206;63013;-63
2021/11/29 01:04:34;;;;;;;0.80;0.80;;;;;;;0.24;89.67;95320.81;29372;197;63005;-64
2021/11/29 01:05:07;;;;;;;0.80;0.80;;;;;;;0.19;89.83;95312.78;29373;227;63009;-65
2021/11/29 01:05:38;;;;;;;0.80;0.80;;;;;;;0.13;90.11;95321.84;29373;198;63009;-58
2021/11/29 01:06:09;;;;;;;0.80;0.80;;;;;;;0.10;90.39;95325.06;29371;231;64009;-68
2021/11/29 01:06:41;;;;;;;0.80;0.80;;;;;;;0.07;90.43;95320.25;29371;202;64005;-65
2021/11/29 01:07:12;;;;;;;0.80;0.80;;;;;;;0.07;90.57;95322.91;29373;209;63009;-62
2021/11/29 01:07:43;;;;;;;1.65;1.65;;;;;;;0.12;90.70;95322.13;29373;215;63005;-66
2021/11/29 01:08:15;;;;;;;0.80;0.80;;;;;;;0.19;90.70;95320.00;29373;232;63009;-59
2021/11/29 01:08:46;;;;;;;0.90;0.90;;;;;;;0.24;90.27;95320.81;29371;230;64004;-60
2021/11/29 01:09:17;;;;;;;0.80;0.80;;;;;;;0.24;90.34;95317.34;29373;198;63009;-64
2021/11/29 01:09:49;;;;;;;0.80;0.80;;;;;;;0.25;90.20;95322.41;29373;219;63004;-63
2021/11/29 01:10:21;;;;;;;0.80;0.80;;;;;;;0.22;90.18;95330.94;29373;259;63009;-63
2021/11/29 01:10:52;;;;;;;0.80;0.80;;;;;;;0.16;90.12;95321.31;29373;231;63004;-64
2021/11/29 01:11:23;;;;;;;0.80;0.80;;;;;;;0.11;90.15;95321.31;29373;250;63008;-67
2021/11/29 01:11:55;;;;;;;0.80;0.80;;;;;;;0.07;90.34;95324.78;29373;224;63007;-58
2021/11/29 01:12:26;;;;;;;0.80;0.80;;;;;;;0.06;90.43;95328.50;29371;232;64009;-62
2021/11/29 01:12:58;;;;;;;1.10;1.10;;;;;;;0.09;90.66;95327.97;29373;241;63005;-67
2021/11/29 01:13:30;;;;;;;0.80;0.80;;;;;;;0.12;90.75;95327.44;29372;244;63009;-59
2021/11/29 01:14:02;;;;;;;0.80;0.80;;;;;;;0.12;90.79;95330.91;29373;205;63005;-62
2021/11/29 01:14:35;;;;;;;0.80;0.80;;;;;;;0.13;90.99;95337.06;29371;282;64001;-66
2021/11/29 01:15:08;;;;;;;1.75;1.75;;;;;;;0.18;90.46;95337.06;29373;228;63005;-62
2021/11/29 01:15:40;;;;;;;0.80;0.80;;;;;;;0.21;90.47;95331.19;29373;261;63009;-59
2021/11/29 01:16:12;;;;;;;0.80;0.80;;;;;;;0.32;90.08;95328.28;29373;253;63004;-61
2021/11/29 01:16:43;;;;;;;3.70;1.73;;;;;;;0.39;89.26;95332.53;29373;213;63009;-62
2021/11/29 01:17:15;;;;;;;0.80;0.80;;;;;;;0.36;89.13;95333.88;29371;258;64004;-62
2021/11/29 01:17:47;;;;;;;0.80;0.80;;;;;;;0.34;89.25;95330.69;29373;244;63009;-62
2021/11/29 01:18:19;;;;;;;0.80;0.80;;;;;;;0.30;89.42;95338.41;29373;254;63004;-66
2021/11/29 01:18:51;;;;;;;0.80;0.80;;;;;;;0.30;89.68;95334.94;29373;197;63008;-64
2021/11/29 01:19:22;;;;;;;0.80;0.80;;;;;;;0.27;89.72;95338.16;29373;197;63004;-63
2021/11/29 01:19:54;;;;;;;1.12;1.12;;;;;;;0.22;89.99;95340.81;29373;226;63009;-63
2021/11/29 01:20:25;;;;;;;1.75;1.70;;;;;;;0.11;89.95;95326.66;29373;214;63005;-64
2021/11/29 01:20:57;;;;;;;0.80;0.80;;;;;;;0.11;90.29;95341.84;29373;227;63009;-63
2021/11/29 01:21:29;;;;;;;1.00;1.00;;;;;;;0.06;90.40;95342.63;29373;197;63005;-63
2021/11/29 01:22:01;;;;;;;0.80;0.80;;;;;;;0.04;90.83;95335.97;29371;236;64009;-67
2021/11/29 01:22:33;;;;;;;0.80;0.80;;;;;;;0.00;90.73;95347.16;29373;199;63005;-61
2021/11/29 01:23:05;;;;;;;0.80;0.80;;;;;;;0.02;91.16;95343.44;29373;208;63015;-65
2021/11/29 01:23:36;;;;;;;0.80;0.80;;;;;;;0.03;91.10;95342.38;29373;217;63005;-63
2021/11/29 01:24:11;;;;;;;0.73;0.73;;;;;;;0.07;91.38;95340.78;29373;202;63009;-63
2021/11/29 01:24:42;;;;;;;0.80;0.80;;;;;;;0.07;91.27;95349.56;29373;210;63004;-56
2021/11/29 01:25:16;;;;;;;1.30;1.20;;;;;;;0.11;91.31;95345.31;29371;202;64009;-62
2021/11/29 01:25:50;;;;;;;0.80;0.80;;;;;;;0.09;91.22;95349.31;29373;202;63004;-62
2021/11/29 01:26:21;;;;;;;0.80;0.80;;;;;;;0.14;91.19;95341.31;29373;223;63008;-66
2021/11/29 01:26:52;;;;;;;0.80;0.80;;;;;;;0.10;90.99;95345.59;29373;218;63004;-66
2021/11/29 01:27:24;;;;;;;0.80;0.80;;;;;;;0.10;91.29;95345.59;29371;225;64009;-62
2021/11/29 01:27:55;;;;;;;2.80;2.67;;;;;;;0.13;91.16;95351.19;29371;209;64005;-63
2021/11/29 01:28:27;;;;;;;0.80;0.80;;;;;;;0.15;91.17;95348.25;29371;216;64009;-63
2021/11/29 01:28:58;;;;;;;0.80;0.80;;;;;;;0.15;91.23;95348.25;29373;211;63011;-60
2021/11/29 01:29:30;;;;;;;0.80;0.80;;;;;;;0.15;91.19;95345.59;29373;216;63009;-66
2021/11/29 01:30:02;;;;;;;0.80;0.80;;;;;;;0.13;91.11;95350.38;29373;250;63005;-67
2021/11/29 01:30:34;;;;;;;0.80;0.80;;;;;;;0.07;90.95;95351.44;29373;242;63009;-67
2021/11/29 01:31:07;;;;;;;0.80;0.80;;;;;;;0.02;91.13;95348.75;29373;202;63005;-63
2021/11/29 01:31:38;;;;;;;0.90;0.90;;;;;;;0.09;91.31;95346.66;29371;236;64009;-62
2021/11/29 01:32:09;;;;;;;0.80;0.80;;;;;;;0.08;91.24;95337.84;29373;219;63014;-63
2021/11/29 01:32:40;;;;;;;0.80;0.80;;;;;;;0.13;91.21;95350.38;29373;219;63009;-62
2021/11/29 01:33:12;;;;;;;0.80;0.80;;;;;;;0.16;91.06;95349.88;29373;259;63004;-65
2021/11/29 01:33:43;;;;;;;0.80;0.80;;;;;;;0.14;91.19;95346.66;29373;271;63009;-63
2021/11/29 01:34:16;;;;;;;3.28;3.08;;;;;;;0.10;90.98;95346.38;29373;251;63004;-63
2021/11/29 01:34:47;;;;;;;0.80;0.80;;;;;;;0.05;91.07;95348.22;29373;224;63009;-65
2021/11/29 01:35:18;;;;;;;0.80;0.80;;;;;;;-0.01;91.13;95348.25;29373;244;63016;-68
2021/11/29 01:35:49;;;;;;;0.80;0.80;;;;;;;-0.05;91.15;95347.19;29373;237;63009;-67
2021/11/29 01:36:20;;;;;;;0.80;0.80;;;;;;;-0.09;91.46;95351.44;29371;281;64005;-63
2021/11/29 01:36:52;;;;;;;2.35;2.25;;;;;;;-0.06;91.62;95350.91;29373;225;63009;-61
2021/11/29 01:37:23;;;;;;;0.80;0.80;;;;;;;0.08;91.51;95347.72;29371;197;64005;-61
2021/11/29 01:37:55;;;;;;;0.80;0.80;;;;;;;0.08;91.33;95343.19;29373;245;63009;-63
2021/11/29 01:38:26;;;;;;;0.80;0.80;;;;;;;0.06;91.02;95349.84;29373;275;63005;-66
2021/11/29 01:38:58;;;;;;;0.80;0.80;;;;;;;0.02;91.21;95348.75;29373;198;63009;-64
2021/11/29 01:39:31;;;;;;;0.80;0.80;;;;;;;0.00;91.30;95347.16;29373;257;63004;-62
2021/11/29 01:40:07;;;;;;;2.20;2.10;;;;;;;0.06;91.55;95352.50;29373;251;63009;-61
2021/11/29 01:40:39;;;;;;;0.80;0.80;;;;;;;0.07;91.27;95354.09;29371;208;64004;-65
2021/11/29 01:41:12;;;;;;;0.80;0.80;;;;;;;0.07;91.32;95351.44;29373;219;63009;-61
2021/11/29 01:41:46;;;;;;;0.80;0.80;;;;;;;0.10;91.42;95354.38;29373;212;63004;-60
2021/11/29 01:42:17;;;;;;;0.80;0.80;;;;;;;0.08;91.16;95350.38;29371;202;64009;-65
2021/11/29 01:43:01;;;;;;;0.80;0.80;;;;;;;0.02;91.28;95348.75;29373;267;63005;-66
2021/11/29 01:43:33;;;;;;;0.80;0.80;;;;;;;-0.03;91.41;95355.72;29371;247;64009;-65
2021/11/29 01:44:05;;;;;;;0.80;0.80;;;;;;;-0.07;91.38;95346.63;29373;229;63005;-68
2021/11/29 01:44:37;;;;;;;0.80;0.80;;;;;;;-0.08;91.52;95355.69;29371;215;64009;-61
2021/11/29 01:45:16;;;;;;;0.80;0.80;;;;;;;-0.05;91.80;95349.84;29373;214;63018;-62
2021/11/29 01:45:51;;;;;;;0.80;0.80;;;;;;;-0.05;91.87;95349.84;29373;231;63009;-67
2021/11/29 01:46:22;;;;;;;0.80;0.80;;;;;;;-0.06;91.90;95350.91;29373;282;63004;-62
2021/11/29 01:46:53;;;;;;;0.80;0.80;;;;;;;0.00;91.96;95357.06;29373;255;63009;-64
2021/11/29 01:47:25;;;;;;;0.80;0.80;;;;;;;0.05;91.53;95353.56;29373;240;63011;-66
2021/11/29 01:47:56;;;;;;;0.80;0.80;;;;;;;0.05;91.57;95359.69;29373;224;63009;-67
2021/11/29 01:48:28;;;;;;;0.70;0.70;;;;;;;0.02;91.23;95356.75;29373;252;63004;-68
2021/11/29 01:49:00;;;;;;;0.80;0.80;;;;;;;-0.04;91.50;95351.44;29371;213;64008;-68
2021/11/29 01:49:31;;;;;;;0.80;0.80;;;;;;;-0.07;91.59;95362.62;29373;226;63007;-68
2021/11/29 01:50:03;;;;;;;0.80;0.80;;;;;;;-0.08;91.50;95361.03;29373;232;63009;-63
2021/11/29 01:50:36;;;;;;;0.80;0.80;;;;;;;0.00;91.58;95357.06;29371;213;64005;-62
2021/11/29 01:51:08;;;;;;;0.70;0.70;;;;;;;0.02;91.64;95359.44;29371;256;64009;-68
2021/11/29 01:51:39;;;;;;;0.70;0.70;;;;;;;0.02;91.46;95368.22;29371;263;64005;-62
2021/11/29 01:52:11;;;;;;;0.80;0.80;;;;;;;0.04;91.45;95362.62;29373;213;63009;-60
2021/11/29 01:52:42;;;;;;;0.90;0.90;;;;;;;0.08;91.38;95367.19;29373;207;63019;-65
2021/11/29 01:53:16;;;;;;;0.77;0.77;;;;;;;0.11;91.32;95363.19;29373;209;63009;-64
2021/11/29 01:53:47;;;;;;;2.78;2.67;;;;;;;0.09;91.23;95357.31;29373;222;63004;-58
2021/11/29 01:54:19;;;;;;;0.80;0.80;;;;;;;0.07;91.03;95365.56;29373;221;63009;-65
2021/11/29 01:54:50;;;;;;;2.10;1.60;;;;;;;0.11;91.18;95363.19;29373;202;63004;-63
2021/11/29 01:55:21;;;;;;;0.75;0.75;;;;;;;0.13;91.24;95361.06;29373;206;63009;-59
2021/11/29 01:55:57;;;;;;;0.80;0.80;;;;;;;0.13;90.82;95366.37;29373;243;63004;-67
2021/11/29 01:56:29;;;;;;;0.95;0.95;;;;;;;0.25;90.60;95369.63;29373;215;63009;-65
2021/11/29 01:57:00;;;;;;;0.82;0.82;;;;;;;0.30;90.07;95361.63;29371;214;64005;-61
2021/11/29 01:57:31;;;;;;;0.70;0.70;;;;;;;0.30;90.04;95373.09;29373;256;63018;-62
2021/11/29 01:58:03;;;;;;;0.80;0.80;;;;;;;0.38;89.67;95365.63;29373;239;63005;-64
2021/11/29 01:58:37;;;;;;;0.80;0.80;;;;;;;0.34;89.55;95373.38;29373;221;63009;-64
2021/11/29 01:59:09;;;;;;;1.08;1.08;;;;;;;0.32;89.50;95370.97;29371;216;64005;-59
2021/11/29 01:59:40;;;;;;;0.90;0.90;;;;;;;0.33;89.46;95377.09;29373;227;63009;-64
2021/11/29 02:00:16;;;;;;;0.80;0.80;;;;;;;0.26;89.51;95366.69;29373;231;63005;-63
2021/11/29 02:00:52;;;;;;;1.37;1.37;;;;;;;0.20;89.92;95366.94;29373;281;63009;-63
2021/11/29 02:01:26;;;;;;;0.80;0.80;;;;;;;0.14;90.02;95368.00;29373;245;63004;-67
2021/11/29 02:01:58;;;;;;;0.80;0.80;;;;;;;0.09;90.20;95378.66;29373;220;63009;-65
2021/11/29 02:02:29;;;;;;;1.23;1.23;;;;;;;0.04;90.36;95367.97;29373;226;63004;-63
2021/11/29 02:03:01;;;;;;;0.80;0.80;;;;;;;0.02;90.63;95370.09;29373;206;63009;-64
2021/11/29 02:03:33;;;;;;;0.77;0.77;;;;;;;-0.02;90.85;95370.66;29373;203;63004;-67
2021/11/29 02:04:07;;;;;;;0.80;0.80;;;;;;;-0.01;90.98;95366.91;29371;214;64009;-63
2021/11/29 02:04:41;;;;;;;0.80;0.80;;;;;;;-0.02;91.16;95378.66;29373;216;63017;-62
2021/11/29 02:05:13;;;;;;;1.62;1.60;;;;;;;0.08;91.23;95379.72;29373;215;63009;-62
2021/11/29 02:05:45;;;;;;;0.80;0.80;;;;;;;0.11;91.15;95373.84;29373;230;63005;-63
2021/11/29 02:06:16;;;;;;;0.70;0.70;;;;;;;0.11;90.94;95380.00;29373;220;63009;-64
2021/11/29 02:06:47;;;;;;;0.70;0.70;;;;;;;0.11;90.87;95379.19;29373;249;63005;-62
2021/11/29 02:07:20;;;;;;;0.70;0.70;;;;;;;0.11;90.99;95379.19;29373;223;63009;-63
2021/11/29 02:07:52;;;;;;;0.80;0.80;;;;;;;0.11;90.90;95371.19;29371;299;64005;-66
2021/11/29 02:08:24;;;;;;;0.80;0.80;;;;;;;0.07;90.83;95378.09;29373;227;63009;-63
2021/11/29 02:08:57;;;;;;;0.70;0.70;;;;;;;0.11;90.79;95379.19;29373;232;63008;-62
2021/11/29 02:09:28;;;;;;;0.80;0.80;;;;;;;0.13;90.83;95379.72;29373;204;63026;-63
2021/11/29 02:10:00;;;;;;;0.75;0.75;;;;;;;0.13;90.83;95379.72;29373;226;63004;-66
2021/11/29 02:10:32;;;;;;;0.80;0.80;;;;;;;0.11;90.84;95376.53;29373;212;63015;-62
2021/11/29 02:11:04;;;;;;;0.80;0.80;;;;;;;0.11;90.82;95376.53;29373;206;63004;-61
2021/11/29 02:11:37;;;;;;;0.80;0.80;;;;;;;0.14;90.77;95373.31;29373;239;63019;-63
2021/11/29 02:12:09;;;;;;;0.70;0.70;;;;;;;0.11;90.75;95384.53;29371;218;64005;-65
2021/11/29 02:12:41;;;;;;;2.08;2.05;;;;;;;0.12;90.82;95380.78;29372;203;64009;-64
2021/11/29 02:13:16;;;;;;;1.17;1.17;;;;;;;0.11;91.05;95380.00;29373;207;63005;-64
2021/11/29 02:13:47;;;;;;;0.80;0.80;;;;;;;0.13;90.99;95379.72;29373;226;63009;-64
2021/11/29 02:14:19;;;;;;;0.80;0.80;;;;;;;0.12;90.95;95378.12;29373;200;63005;-65
2021/11/29 02:14:50;;;;;;;0.80;0.80;;;;;;;0.09;90.95;95382.13;29372;220;64009;-65
2021/11/29 02:15:21;;;;;;;1.27;1.27;;;;;;;0.09;90.93;95382.13;29373;211;63005;-62
2021/11/29 02:15:53;;;;;;;0.80;0.80;;;;;;;0.12;90.87;95378.12;29373;222;63009;-63
2021/11/29 02:16:24;;;;;;;0.80;0.80;;;;;;;0.13;90.71;95385.06;29373;220;63004;-57
2021/11/29 02:16:55;;;;;;;0.80;0.80;;;;;;;0.14;90.65;95384.00;29373;236;63009;-62
2021/11/29 02:17:27;;;;;;;0.80;0.80;;;;;;;0.20;90.45;95385.62;29371;222;64004;-61
2021/11/29 02:17:58;;;;;;;1.12;1.12;;;;;;;0.24;90.16;95390.16;29373;226;63009;-60
2021/11/29 02:18:40;;;;;;;1.65;1.60;;;;;;;0.22;89.83;95386.16;29373;220;63004;-62
2021/11/29 02:19:11;;;;;;;0.80;0.80;;;;;;;0.18;89.81;95385.06;29373;247;63023;-66
2021/11/29 02:19:45;;;;;;;0.80;0.80;;;;;;;0.11;89.97;95384.53;29371;199;64005;-64
2021/11/29 02:20:19;;;;;;;0.80;0.80;;;;;;;0.06;90.17;95377.31;29373;226;63009;-65
2021/11/29 02:21:13;;;;;;;0.80;0.80;;;;;;;-0.02;90.41;95386.66;29373;225;63005;-68
2021/11/29 02:21:44;;;;;;;0.80;0.80;;;;;;;-0.04;90.65;95386.09;29373;216;63016;-69
2021/11/29 02:22:16;;;;;;;0.80;0.80;;;;;;;-0.07;90.73;95383.16;29373;225;63005;-68
2021/11/29 02:22:51;;;;;;;0.80;0.80;;;;;;;-0.10;90.93;95384.47;29373;243;63009;-68
2021/11/29 02:23:22;;;;;;;0.80;0.80;;;;;;;-0.13;91.26;95378.88;29373;282;63004;-64
2021/11/29 02:23:58;;;;;;;0.85;0.85;;;;;;;-0.14;91.13;95386.06;29373;258;63009;-64
2021/11/29 02:24:30;;;;;;;0.80;0.80;;;;;;;-0.12;91.55;95386.59;29373;215;63015;-65
2021/11/29 02:25:03;;;;;;;0.80;0.80;;;;;;;-0.09;91.87;95390.63;29371;218;64009;-67
2021/11/29 02:25:34;;;;;;;0.80;0.80;;;;;;;-0.09;91.83;95388.75;29373;218;63008;-65
2021/11/29 02:26:07;;;;;;;1.05;1.05;;;;;;;-0.02;91.81;95386.66;29373;209;63008;-67
2021/11/29 02:26:39;;;;;;;0.77;0.77;;;;;;;0.02;91.58;95386.91;29373;218;63011;-62
2021/11/29 02:27:10;;;;;;;0.80;0.80;;;;;;;0.05;91.30;95390.91;29373;261;63009;-64
2021/11/29 02:27:44;;;;;;;0.80;0.80;;;;;;;0.02;91.09;95389.56;29373;256;63013;-62
2021/11/29 02:28:20;;;;;;;0.80;0.80;;;;;;;0.04;91.31;95394.62;29373;247;63009;-66
2021/11/29 02:29:01;;;;;;;0.80;0.80;;;;;;;0.00;91.10;95387.16;29373;235;63005;-67
2021/11/29 02:29:33;;;;;;;0.80;0.80;;;;;;;-0.02;91.32;95391.97;29395;214;63009;-64
2021/11/29 02:30:06;;;;;;;0.80;0.80;;;;;;;0.04;91.33;95390.09;29394;236;64005;-63
2021/11/29 02:30:39;;;;;;;0.80;0.80;;;;;;;0.07;91.24;95388.78;29373;217;63009;-68
2021/11/29 02:31:15;;;;;;;0.80;0.80;;;;;;;0.13;90.71;95388.53;29373;245;63004;-64
2021/11/29 02:31:48;;;;;;;0.80;0.80;;;;;;;0.19;90.63;95387.47;29373;249;63009;-62
2021/11/29 02:32:19;;;;;;;0.95;0.95;;;;;;;0.25;90.15;95396.28;29373;227;63010;-62
2021/11/29 02:32:53;;;;;;;0.70;0.70;;;;;;;0.26;89.76;95387.22;29373;226;63009;-61
2021/11/29 02:33:28;;;;;;;0.80;0.80;;;;;;;0.28;89.44;95385.09;29373;220;63004;-62
2021/11/29 02:34:13;;;;;;;0.85;0.85;;;;;;;0.34;89.21;95389.37;29373;238;63008;-62
2021/11/29 02:34:44;;;;;;;0.80;0.80;;;;;;;0.28;88.83;95393.91;29373;264;63011;-63
2021/11/29 02:35:15;;;;;;;1.00;1.00;;;;;;;0.31;88.97;95395.25;29371;203;64009;-62
2021/11/29 02:35:47;;;;;;;0.90;0.90;;;;;;;0.29;89.00;95392.84;29371;218;64005;-66